Time;durP1;ratioP1;P1;durP2;ratioP2;P2;SDS_P1;SDS_P2;PMS_P1;PMS_P2;Temp;Humidity;BMP_temperature;BMP_pressure;BME280_temperature;BME280_humidity;BME280_pressure;Samples;Min_cycle;Max_cycle;Signal;HPM_P1;HPM_P2
2022/12/08 00:00:12;;;;;;;37.00;18.00;;;3.30;99.90;;;;;;5037579;28;21098;-59
2022/12/08 00:02:41;;;;;;;72.30;28.13;;;3.20;99.90;;;;;;5031794;28;20495;-59
2022/12/08 00:10:38;;;;;;;40.40;13.83;;;3.50;99.90;;;;;;5015683;28;20507;-59
2022/12/08 00:13:05;;;;;;;27.00;12.57;;;3.70;99.90;;;;;;5011054;28;20488;-59
2022/12/08 00:15:33;;;;;;;29.83;12.50;;;3.70;99.90;;;;;;5027049;28;20479;-59
2022/12/08 00:17:59;;;;;;;48.93;14.70;;;3.80;99.90;;;;;;5027805;28;20481;-59
2022/12/08 00:20:26;;;;;;;42.27;18.03;;;3.80;99.90;;;;;;5020231;28;21199;-59
2022/12/08 00:22:53;;;;;;;29.40;13.47;;;3.80;99.90;;;;;;5019796;28;20985;-59
2022/12/08 00:25:20;;;;;;;47.30;16.67;;;3.90;99.90;;;;;;5011153;28;20484;-59
2022/12/08 00:27:47;;;;;;;26.60;11.60;;;3.90;99.90;;;;;;5014601;28;21227;-59
2022/12/08 00:30:13;;;;;;;46.73;19.17;;;3.70;99.90;;;;;;5016027;28;22080;-59
2022/12/08 00:32:41;;;;;;;34.40;13.90;;;3.50;99.90;;;;;;5016589;28;20477;-59
2022/12/08 00:35:08;;;;;;;25.40;12.60;;;3.40;99.90;;;;;;5024613;28;20480;-59
2022/12/08 00:37:35;;;;;;;35.20;17.10;;;3.30;99.90;;;;;;5021678;28;20669;-60
2022/12/08 00:40:02;;;;;;;43.33;14.23;;;3.20;99.90;;;;;;5023772;28;20485;-59
2022/12/08 00:42:29;;;;;;;44.33;16.10;;;3.20;99.90;;;;;;5020165;28;20491;-59
2022/12/08 00:44:55;;;;;;;27.67;13.73;;;3.20;99.90;;;;;;5010344;28;20523;-59
2022/12/08 00:47:22;;;;;;;40.00;15.13;;;3.30;99.90;;;;;;5010926;28;20473;-59
2022/12/08 00:49:50;;;;;;;24.03;11.67;;;3.30;99.90;;;;;;5020691;28;20487;-59
2022/12/08 00:52:17;;;;;;;54.27;22.07;;;3.30;99.90;;;;;;5026829;28;20562;-59
2022/12/08 00:54:44;;;;;;;23.33;12.00;;;3.40;99.90;;;;;;5019982;28;20706;-59
2022/12/08 00:57:11;;;;;;;31.37;12.57;;;3.40;99.90;;;;;;5012631;28;20857;-59
2022/12/08 00:59:38;;;;;;;43.17;15.03;;;3.50;99.90;;;;;;5013803;28;21065;-59
2022/12/08 01:02:04;;;;;;;31.90;14.20;;;3.60;99.90;;;;;;5015137;28;20473;-59
2022/12/08 01:04:31;;;;;;;32.20;14.20;;;3.60;99.90;;;;;;5012889;28;20481;-59
2022/12/08 01:06:59;;;;;;;40.47;17.00;;;3.60;99.90;;;;;;5002215;28;20962;-59
2022/12/08 01:09:26;;;;;;;46.03;16.13;;;3.60;99.90;;;;;;5014850;28;20485;-59
2022/12/08 01:11:52;;;;;;;41.70;17.60;;;3.60;99.90;;;;;;5010666;28;20886;-59
2022/12/08 01:14:19;;;;;;;58.10;24.50;;;3.60;99.90;;;;;;5009050;28;20487;-60
2022/12/08 01:16:46;;;;;;;37.33;13.77;;;3.60;99.90;;;;;;5010466;28;20805;-59
2022/12/08 01:19:15;;;;;;;39.73;17.03;;;3.70;99.90;;;;;;5011534;28;20473;-59
2022/12/08 01:21:43;;;;;;;35.10;14.83;;;3.60;99.90;;;;;;5015361;28;20482;-60
2022/12/08 01:24:13;;;;;;;37.97;16.80;;;3.70;99.90;;;;;;5014827;28;20781;-59
2022/12/08 01:26:40;;;;;;;35.57;17.23;;;3.70;99.90;;;;;;5014864;28;20800;-59
2022/12/08 01:29:07;;;;;;;47.33;19.90;;;3.70;99.90;;;;;;5014943;28;20476;-59
2022/12/08 01:31:34;;;;;;;37.90;15.40;;;3.60;99.90;;;;;;5014954;28;20936;-59
2022/12/08 01:34:01;;;;;;;50.00;20.77;;;3.60;99.90;;;;;;5036027;28;21071;-59
2022/12/08 01:36:30;;;;;;;48.07;18.17;;;3.60;99.90;;;;;;5033400;28;20476;-59
2022/12/08 01:38:58;;;;;;;43.23;15.67;;;3.70;99.90;;;;;;5034878;28;20484;-59
2022/12/08 01:41:28;;;;;;;46.73;18.83;;;3.60;99.90;;;;;;5034945;28;20480;-59
2022/12/08 01:44:01;;;;;;;33.83;15.40;;;3.80;99.90;;;;;;5037633;28;21609;-59
2022/12/08 01:46:30;;;;;;;49.07;17.60;;;3.80;99.90;;;;;;5034881;28;20479;-59
2022/12/08 01:49:02;;;;;;;31.63;13.77;;;3.80;99.90;;;;;;5034829;28;20477;-59
2022/12/08 01:51:30;;;;;;;32.80;15.10;;;3.80;99.90;;;;;;5035632;28;20484;-59
2022/12/08 01:53:57;;;;;;;39.13;16.23;;;3.80;99.90;;;;;;5036819;28;20480;-60
2022/12/08 01:56:31;;;;;;;63.87;25.20;;;3.70;99.90;;;;;;5034758;28;20484;-59
2022/12/08 01:58:58;;;;;;;57.83;17.20;;;3.60;99.90;;;;;;5035675;28;20530;-59
2022/12/08 02:01:25;;;;;;;64.23;24.30;;;3.60;99.90;;;;;;5035531;28;20499;-60
2022/12/08 02:03:56;;;;;;;37.83;16.00;;;3.60;99.90;;;;;;5034286;28;20491;-59
2022/12/08 02:06:23;;;;;;;59.27;21.30;;;3.60;99.90;;;;;;5034240;28;20488;-59
2022/12/08 02:08:53;;;;;;;28.23;15.63;;;3.70;99.90;;;;;;5036562;28;20480;-58
2022/12/08 02:11:20;;;;;;;53.80;15.60;;;3.80;99.90;;;;;;5035597;28;20495;-59
2022/12/08 02:13:51;;;;;;;30.43;14.10;;;3.80;99.90;;;;;;5035578;28;20497;-59
2022/12/08 02:16:32;;;;;;;53.10;18.17;;;3.80;99.90;;;;;;5034448;28;21071;-59
2022/12/08 02:19:11;;;;;;;31.10;12.23;;;3.90;99.90;;;;;;5036393;28;20498;-59
2022/12/08 02:21:46;;;;;;;36.63;15.93;;;3.90;99.90;;;;;;5024721;28;20492;-59
2022/12/08 02:24:20;;;;;;;30.57;13.50;;;3.80;99.90;;;;;;5033048;28;20522;-59
2022/12/08 02:27:23;;;;;;;31.90;13.53;;;3.70;99.90;;;;;;5034702;28;20483;-59
2022/12/08 02:30:14;;;;;;;38.63;14.77;;;3.80;99.90;;;;;;5032146;28;20479;-59
2022/12/08 02:33:15;;;;;;;34.53;17.23;;;3.70;99.90;;;;;;5015371;28;20492;-59
2022/12/08 02:35:53;;;;;;;37.20;14.90;;;3.60;99.90;;;;;;5017835;28;20497;-59
2022/12/08 02:38:27;;;;;;;55.50;20.13;;;3.60;99.90;;;;;;5012158;28;20502;-59
2022/12/08 02:41:05;;;;;;;35.10;15.00;;;3.70;99.90;;;;;;5013034;28;20496;-59
2022/12/08 02:43:37;;;;;;;30.73;12.37;;;3.60;99.90;;;;;;5026355;28;21009;-58
2022/12/08 02:46:10;;;;;;;48.73;20.93;;;3.60;99.90;;;;;;5027303;28;20488;-59
2022/12/08 02:48:38;;;;;;;29.50;11.73;;;3.70;99.90;;;;;;5024293;28;20484;-58
2022/12/08 02:51:06;;;;;;;36.53;14.60;;;3.70;99.90;;;;;;5025932;28;20836;-59
2022/12/08 02:53:36;;;;;;;40.80;16.50;;;3.70;99.90;;;;;;5035949;28;20486;-60
2022/12/08 02:56:13;;;;;;;42.43;18.17;;;3.70;99.90;;;;;;5025346;28;21392;-60
2022/12/08 02:59:05;;;;;;;42.63;19.13;;;3.60;99.90;;;;;;5015674;28;20483;-59
2022/12/08 03:01:41;;;;;;;32.47;12.80;;;;;;;;;;5036037;28;21060;-59
2022/12/08 03:04:14;;;;;;;45.77;18.87;;;3.70;99.90;;;;;;5029846;28;20488;-60
2022/12/08 03:06:50;;;;;;;30.77;12.67;;;3.70;99.90;;;;;;5025343;28;20488;-59
2022/12/08 03:09:24;;;;;;;52.50;18.70;;;3.70;99.90;;;;;;5035091;28;20480;-59
2022/12/08 03:11:57;;;;;;;43.10;18.53;;;3.70;99.90;;;;;;5034224;28;21016;-59
2022/12/08 03:14:25;;;;;;;52.80;19.03;;;3.70;99.90;;;;;;5034993;28;20484;-59
2022/12/08 03:16:55;;;;;;;37.43;15.33;;;3.70;99.90;;;;;;5034244;28;20492;-59
2022/12/08 03:19:26;;;;;;;48.83;20.80;;;3.70;99.90;;;;;;5030874;28;20472;-59
2022/12/08 03:22:02;;;;;;;37.40;13.53;;;3.70;99.90;;;;;;5035855;28;20484;-59
2022/12/08 03:24:30;;;;;;;39.27;15.90;;;3.80;99.90;;;;;;5034764;28;20484;-59
2022/12/08 03:27:02;;;;;;;39.07;18.17;;;3.80;99.90;;;;;;5022342;28;20757;-59
2022/12/08 03:29:29;;;;;;;36.93;16.17;;;3.90;99.90;;;;;;5017708;28;20989;-59
2022/12/08 03:32:00;;;;;;;47.37;16.77;;;4.30;99.90;;;;;;5018578;28;20515;-59
2022/12/08 03:34:29;;;;;;;45.47;17.00;;;4.00;99.90;;;;;;5018110;28;20577;-59
2022/12/08 03:36:59;;;;;;;31.00;12.13;;;3.90;99.90;;;;;;5015003;28;20592;-59
2022/12/08 03:39:26;;;;;;;54.87;21.73;;;3.90;99.90;;;;;;5018254;28;20753;-59
2022/12/08 03:41:53;;;;;;;42.80;17.10;;;3.80;99.90;;;;;;5015116;28;20481;-59
2022/12/08 03:44:20;;;;;;;47.70;21.30;;;3.80;99.90;;;;;;5014629;28;21107;-59
2022/12/08 03:46:46;;;;;;;37.07;16.33;;;3.80;99.90;;;;;;5014160;28;20496;-59
2022/12/08 03:49:13;;;;;;;50.37;19.87;;;3.70;99.90;;;;;;5014150;28;20481;-59
2022/12/08 03:51:40;;;;;;;35.03;16.40;;;3.80;99.90;;;;;;5015603;28;20504;-59
2022/12/08 03:54:08;;;;;;;35.50;16.97;;;3.70;99.90;;;;;;5015352;28;20871;-59
2022/12/08 03:56:37;;;;;;;35.03;14.60;;;3.80;99.90;;;;;;5009015;28;20487;-59
2022/12/08 03:59:05;;;;;;;40.77;17.07;;;3.80;99.90;;;;;;5007279;28;20928;-60
2022/12/08 04:01:32;;;;;;;32.10;14.67;;;;;;;;;;5041643;28;20482;-59
2022/12/08 04:03:59;;;;;;;35.93;14.80;;;3.80;99.90;;;;;;5025523;28;20492;-60
2022/12/08 04:06:26;;;;;;;49.73;20.83;;;3.70;99.90;;;;;;5028201;28;20476;-60
2022/12/08 04:08:53;;;;;;;41.17;16.57;;;;;;;;;;5027610;28;20464;-60
2022/12/08 04:11:21;;;;;;;51.73;21.80;;;3.70;99.90;;;;;;5037676;28;20494;-59
2022/12/08 04:13:48;;;;;;;32.67;13.60;;;3.70;99.90;;;;;;5029686;28;20492;-60
2022/12/08 04:16:16;;;;;;;51.80;20.90;;;3.70;99.90;;;;;;5032705;28;20487;-60
2022/12/08 04:18:43;;;;;;;26.83;12.97;;;3.80;99.90;;;;;;5013940;28;20615;-61
2022/12/08 04:21:10;;;;;;;31.90;12.20;;;3.80;99.90;;;;;;5031047;28;21205;-60
2022/12/08 04:23:37;;;;;;;27.03;11.90;;;3.80;99.90;;;;;;5035819;28;20472;-60
2022/12/08 04:26:04;;;;;;;42.90;16.27;;;3.70;99.90;;;;;;5025322;28;20496;-60
2022/12/08 04:28:32;;;;;;;34.07;14.20;;;3.70;99.90;;;;;;5036350;28;20567;-60
2022/12/08 04:31:00;;;;;;;33.40;11.97;;;3.70;99.90;;;;;;5037530;28;20495;-59
2022/12/08 04:33:26;;;;;;;46.93;18.23;;;3.80;99.90;;;;;;5036541;28;20905;-59
2022/12/08 04:35:53;;;;;;;36.57;15.70;;;3.70;99.90;;;;;;5032808;28;20830;-60
2022/12/08 04:38:20;;;;;;;45.47;18.50;;;3.70;99.90;;;;;;5034680;28;20476;-59
2022/12/08 04:40:46;;;;;;;32.17;12.80;;;3.70;99.90;;;;;;5027602;28;20492;-59
2022/12/08 04:43:13;;;;;;;46.97;18.13;;;3.70;99.90;;;;;;5020403;28;20485;-60
2022/12/08 04:45:42;;;;;;;34.80;15.70;;;3.60;99.90;;;;;;5029183;28;20484;-60
2022/12/08 04:48:11;;;;;;;35.60;16.37;;;3.60;99.90;;;;;;5030816;28;20499;-59
2022/12/08 04:50:39;;;;;;;43.50;18.77;;;3.60;99.90;;;;;;5039040;28;20992;-59
2022/12/08 04:53:06;;;;;;;66.07;17.97;;;3.50;99.90;;;;;;5032409;28;20480;-59
2022/12/08 04:55:32;;;;;;;56.67;20.80;;;3.50;99.90;;;;;;5040728;28;20475;-59
2022/12/08 04:57:59;;;;;;;50.20;18.60;;;3.50;99.90;;;;;;5038430;28;20491;-59
2022/12/08 05:00:26;;;;;;;61.13;21.50;;;3.50;99.90;;;;;;5037075;28;20476;-59
2022/12/08 05:02:54;;;;;;;49.50;21.67;;;3.40;99.90;;;;;;5037611;28;20484;-59
2022/12/08 05:05:21;;;;;;;62.03;23.80;;;3.40;99.90;;;;;;5036871;28;20882;-59
2022/12/08 05:07:47;;;;;;;52.17;15.87;;;3.40;99.90;;;;;;5036161;28;20491;-59
2022/12/08 05:10:14;;;;;;;57.73;22.20;;;3.40;99.90;;;;;;5037239;28;20480;-59
2022/12/08 05:12:41;;;;;;;29.50;13.87;;;3.50;99.90;;;;;;5037242;28;20484;-59
2022/12/08 05:15:08;;;;;;;42.10;18.13;;;3.60;99.90;;;;;;5037683;28;20563;-59
2022/12/08 05:17:35;;;;;;;41.37;16.17;;;3.60;99.90;;;;;;5035080;28;20485;-59
2022/12/08 05:20:03;;;;;;;33.77;12.90;;;3.60;99.90;;;;;;5036056;28;20468;-59
2022/12/08 05:22:30;;;;;;;46.47;16.73;;;3.70;99.90;;;;;;5035940;28;20519;-59
2022/12/08 05:24:57;;;;;;;36.37;14.60;;;3.80;99.90;;;;;;5036867;28;20675;-59
2022/12/08 05:27:23;;;;;;;60.93;23.10;;;3.90;99.90;;;;;;5036528;28;20484;-60
2022/12/08 05:29:50;;;;;;;53.80;20.87;;;3.80;99.90;;;;;;5037088;28;20838;-59
2022/12/08 05:32:17;;;;;;;58.40;23.20;;;3.70;99.90;;;;;;5036564;28;20480;-59
2022/12/08 05:34:43;;;;;;;49.70;20.27;;;3.70;99.90;;;;;;5035515;28;20863;-59
2022/12/08 05:37:11;;;;;;;47.10;20.87;;;3.60;99.90;;;;;;5036248;28;20849;-59
2022/12/08 05:39:38;;;;;;;58.30;23.93;;;3.50;99.90;;;;;;5037600;28;20492;-59
2022/12/08 05:42:05;;;;;;;66.27;20.83;;;3.50;99.90;;;;;;5035420;28;20476;-59
2022/12/08 05:44:32;;;;;;;49.83;18.70;;;3.40;99.90;;;;;;5035954;28;20476;-59
2022/12/08 05:46:58;;;;;;;48.90;21.70;;;3.40;99.90;;;;;;5036508;28;20479;-59
2022/12/08 05:49:25;;;;;;;60.10;22.20;;;3.30;99.90;;;;;;5036872;28;20483;-59
2022/12/08 05:51:52;;;;;;;45.03;18.17;;;3.30;99.90;;;;;;5036975;28;20802;-59
2022/12/08 05:54:20;;;;;;;56.67;19.57;;;3.40;99.90;;;;;;5035849;28;20468;-59
2022/12/08 05:56:48;;;;;;;41.77;17.90;;;3.50;99.90;;;;;;5036300;28;20988;-59
2022/12/08 05:59:15;;;;;;;59.83;20.23;;;3.50;99.90;;;;;;5037045;28;20468;-59
2022/12/08 06:01:42;;;;;;;32.20;16.10;;;3.50;99.90;;;;;;5037530;28;21075;-59
2022/12/08 06:04:09;;;;;;;47.37;17.10;;;3.50;99.90;;;;;;5038466;28;20488;-59
2022/12/08 06:06:37;;;;;;;56.93;18.60;;;3.40;99.90;;;;;;5035106;28;20813;-59
2022/12/08 06:09:05;;;;;;;41.40;18.20;;;3.40;99.90;;;;;;5038764;28;20511;-59
2022/12/08 06:11:33;;;;;;;44.20;19.43;;;3.30;99.90;;;;;;5035132;28;21000;-60
2022/12/08 06:14:02;;;;;;;49.27;20.00;;;3.30;99.90;;;;;;5039003;28;20491;-60
2022/12/08 06:16:29;;;;;;;48.80;20.50;;;3.40;99.90;;;;;;5037371;28;20488;-59
2022/12/08 06:18:57;;;;;;;40.67;21.43;;;3.40;99.90;;;;;;5037286;28;20495;-60
2022/12/08 06:21:24;;;;;;;56.10;21.23;;;3.40;99.90;;;;;;5038161;28;20491;-59
2022/12/08 06:23:52;;;;;;;37.80;19.40;;;3.30;99.90;;;;;;5039118;28;20476;-60
2022/12/08 06:26:19;;;;;;;64.37;23.30;;;3.30;99.90;;;;;;5028681;28;20512;-60
2022/12/08 06:28:48;;;;;;;55.83;20.57;;;3.30;99.90;;;;;;5035908;28;20476;-60
2022/12/08 06:31:18;;;;;;;47.67;18.43;;;3.30;99.90;;;;;;5031616;28;20515;-60
2022/12/08 06:33:45;;;;;;;32.03;16.57;;;3.30;99.90;;;;;;5024654;28;20477;-60
2022/12/08 06:36:14;;;;;;;42.53;16.73;;;3.40;99.90;;;;;;5030055;28;21442;-60
2022/12/08 06:38:41;;;;;;;33.13;15.43;;;3.40;99.90;;;;;;5034220;28;20491;-60
2022/12/08 06:41:08;;;;;;;33.00;13.90;;;;;;;;;;5032457;28;20484;-60
2022/12/08 06:43:35;;;;;;;38.50;17.63;;;3.50;99.90;;;;;;5034422;28;20850;-60
2022/12/08 06:46:06;;;;;;;54.17;23.23;;;3.40;99.90;;;;;;5033735;28;20476;-60
2022/12/08 06:48:32;;;;;;;46.77;19.57;;;1.20;99.90;;;;;;5034913;28;20599;-60
2022/12/08 06:51:06;;;;;;;41.83;20.17;;;3.30;99.90;;;;;;5033714;28;20487;-60
2022/12/08 06:53:33;;;;;;;46.13;19.80;;;3.40;99.90;;;;;;5025137;28;20940;-59
2022/12/08 06:55:59;;;;;;;58.87;18.27;;;3.40;99.90;;;;;;5033078;28;20480;-60
2022/12/08 06:58:26;;;;;;;57.33;21.20;;;3.40;99.90;;;;;;5023350;28;20477;-60
2022/12/08 07:00:53;;;;;;;25.70;12.07;;;3.50;99.90;;;;;;5034679;28;20507;-60
2022/12/08 07:03:21;;;;;;;49.30;20.70;;;3.40;99.90;;;;;;5034072;28;20555;-60
2022/12/08 07:05:48;;;;;;;37.63;17.90;;;3.40;99.90;;;;;;5034287;28;20933;-60
2022/12/08 07:08:14;;;;;;;49.27;20.07;;;3.30;99.90;;;;;;5035334;28;20483;-60
2022/12/08 07:10:41;;;;;;;50.40;15.73;;;3.40;99.90;;;;;;5034832;28;20507;-59
2022/12/08 07:13:08;;;;;;;40.57;18.17;;;3.40;99.90;;;;;;5021115;28;20488;-59
2022/12/08 07:15:34;;;;;;;36.97;15.40;;;3.50;99.90;;;;;;5038688;28;20928;-59
2022/12/08 07:18:01;;;;;;;27.63;13.07;;;3.50;99.90;;;;;;5030942;28;20481;-60
2022/12/08 07:20:29;;;;;;;48.17;19.20;;;3.50;99.90;;;;;;5038567;28;21381;-59
2022/12/08 07:22:56;;;;;;;33.83;13.50;;;3.50;99.90;;;;;;5039123;28;20488;-60
2022/12/08 07:25:23;;;;;;;49.53;15.70;;;3.50;99.90;;;;;;5037177;28;20488;-59
2022/12/08 07:27:51;;;;;;;29.90;13.43;;;3.40;99.90;;;;;;5017617;28;20484;-60
2022/12/08 07:30:18;;;;;;;64.50;21.07;;;3.50;99.90;;;;;;5012080;28;20477;-60
2022/12/08 07:32:45;;;;;;;52.73;15.53;;;3.50;99.90;;;;;;5014952;28;20806;-60
2022/12/08 07:35:12;;;;;;;39.30;17.00;;;3.50;99.90;;;;;;5014306;28;20489;-60
2022/12/08 07:37:40;;;;;;;37.63;15.10;;;3.50;99.90;;;;;;5014320;28;20917;-59
2022/12/08 07:40:08;;;;;;;31.20;12.67;;;3.50;99.90;;;;;;5010161;28;20493;-60
2022/12/08 07:42:35;;;;;;;34.23;14.23;;;3.50;99.90;;;;;;5040150;28;20480;-60
2022/12/08 07:45:02;;;;;;;31.97;14.33;;;3.50;99.90;;;;;;5026528;28;20892;-60
2022/12/08 07:47:29;;;;;;;40.47;14.53;;;3.40;99.90;;;;;;5036497;28;20487;-60
2022/12/08 07:49:56;;;;;;;41.40;14.87;;;3.50;99.90;;;;;;5037112;28;20476;-60
2022/12/08 07:52:22;;;;;;;54.63;16.27;;;3.50;99.90;;;;;;5031045;28;20479;-60
2022/12/08 07:54:51;;;;;;;26.87;11.63;;;3.40;99.90;;;;;;5036194;28;20558;-60
2022/12/08 07:57:17;;;;;;;57.83;18.97;;;3.50;99.90;;;;;;5051939;28;20861;-60
2022/12/08 07:59:44;;;;;;;35.63;14.27;;;3.40;99.90;;;;;;5016544;28;20491;-60
2022/12/08 08:02:18;;;;;;;41.53;17.20;;;3.40;99.90;;;;;;5015803;28;20477;-60
2022/12/08 08:04:44;;;;;;;38.70;16.00;;;3.40;99.90;;;;;;5014596;28;21199;-60
2022/12/08 08:07:12;;;;;;;47.43;18.10;;;4.40;99.90;;;;;;5012530;28;20473;-59
2022/12/08 08:09:39;;;;;;;53.07;16.67;;;3.30;99.90;;;;;;5013754;28;20512;-59
2022/12/08 08:12:09;;;;;;;56.23;15.70;;;3.30;99.90;;;;;;5014827;28;20481;-59
2022/12/08 08:14:36;;;;;;;41.40;14.33;;;;;;;;;;5017870;28;20477;-59
2022/12/08 08:17:02;;;;;;;52.77;16.60;;;3.40;99.90;;;;;;5017492;28;20835;-60
2022/12/08 08:19:29;;;;;;;53.70;15.63;;;3.40;99.90;;;;;;5017415;28;20485;-59
2022/12/08 08:21:56;;;;;;;34.23;11.30;;;;;;;;;;5018814;28;20481;-59
2022/12/08 08:24:23;;;;;;;54.50;17.20;;;3.50;99.90;;;;;;5017215;28;21367;-59
2022/12/08 08:26:52;;;;;;;34.93;13.90;;;;;;;;;;5017393;28;20561;-59
2022/12/08 08:29:20;;;;;;;75.97;20.67;;;3.50;99.90;;;;;;5017656;28;20550;-59
2022/12/08 08:31:47;;;;;;;44.00;12.40;;;;;;;;;;5020968;28;20842;-59
2022/12/08 08:34:14;;;;;;;78.77;20.27;;;;;;;;;;5018942;28;20488;-59
2022/12/08 08:36:41;;;;;;;63.90;17.73;;;3.50;99.90;;;;;;5019878;28;20987;-59
2022/12/08 08:39:08;;;;;;;43.53;14.30;;;;;;;;;;5020050;28;20485;-59
2022/12/08 08:41:35;;;;;;;53.03;16.77;;;3.60;99.90;;;;;;5017881;28;20488;-59
2022/12/08 08:44:02;;;;;;;57.20;17.40;;;3.70;99.90;;;;;;5015808;28;20477;-59
2022/12/08 08:46:30;;;;;;;63.53;20.60;;;;;;;;;;5015814;28;21048;-59
2022/12/08 08:48:57;;;;;;;51.50;16.80;;;3.80;99.90;;;;;;5038062;28;20571;-58
2022/12/08 08:51:25;;;;;;;71.50;21.03;;;3.70;99.90;;;;;;5021095;28;20488;-60
2022/12/08 08:53:51;;;;;;;44.07;16.77;;;3.70;99.90;;;;;;5010280;28;20492;-59
2022/12/08 08:56:19;;;;;;;66.50;21.10;;;3.80;99.90;;;;;;5016005;28;20790;-59
2022/12/08 08:58:47;;;;;;;48.50;18.37;;;3.70;99.90;;;;;;5016691;28;20516;-59
2022/12/08 09:01:15;;;;;;;52.63;15.10;;;3.80;99.90;;;;;;5021885;28;21039;-59
2022/12/08 09:03:44;;;;;;;49.00;15.03;;;3.90;99.90;;;;;;5015676;28;20485;-59
2022/12/08 09:06:11;;;;;;;56.47;18.17;;;3.90;99.90;;;;;;5016442;28;20504;-59
2022/12/08 09:08:38;;;;;;;38.73;12.93;;;3.80;99.90;;;;;;5017834;28;20489;-59
2022/12/08 09:11:05;;;;;;;54.67;17.93;;;3.90;99.90;;;;;;5019524;28;20485;-59
2022/12/08 09:13:32;;;;;;;47.60;20.33;;;3.90;99.90;;;;;;5033048;28;20481;-59
2022/12/08 09:16:00;;;;;;;66.00;18.80;;;3.90;99.90;;;;;;5027024;28;20588;-59
2022/12/08 09:18:27;;;;;;;71.70;20.73;;;3.90;99.90;;;;;;5016886;28;20476;-59
2022/12/08 09:20:55;;;;;;;61.77;21.27;;;3.80;99.90;;;;;;5016746;28;20860;-59
2022/12/08 09:23:22;;;;;;;78.70;20.83;;;3.90;99.90;;;;;;5016164;28;20477;-59
2022/12/08 09:25:49;;;;;;;58.80;18.90;;;;;;;;;;5017557;28;20523;-59
2022/12/08 09:28:16;;;;;;;77.00;19.80;;;3.90;99.90;;;;;;5018717;28;20492;-59
2022/12/08 09:30:42;;;;;;;64.97;22.17;;;3.80;99.90;;;;;;5035485;28;21174;-59
2022/12/08 09:33:11;;;;;;;55.57;18.60;;;;;;;;;;5032078;28;20481;-59
2022/12/08 09:35:38;;;;;;;57.13;19.03;;;;;;;;;;5035606;28;20511;-59
2022/12/08 09:38:07;;;;;;;63.60;20.40;;;3.80;99.90;;;;;;5018862;28;20481;-59
2022/12/08 09:40:41;;;;;;;55.73;19.13;;;3.90;99.90;;;;;;5015991;28;20477;-60
2022/12/08 09:43:12;;;;;;;64.13;19.87;;;;;;;;;;5017029;28;20496;-60
2022/12/08 09:45:39;;;;;;;45.93;16.30;;;;;;;;;;5016824;28;20488;-60
2022/12/08 09:48:10;;;;;;;59.30;19.93;;;;;;;;;;5012986;28;20481;-60
2022/12/08 09:50:40;;;;;;;64.43;21.30;;;4.10;99.90;;;;;;5005251;28;20517;-59
2022/12/08 09:53:14;;;;;;;74.37;22.10;;;4.10;99.90;;;;;;5008310;28;20840;-59
2022/12/08 09:55:45;;;;;;;65.13;20.93;;;4.10;99.90;;;;;;5016381;28;21120;-60
2022/12/08 09:58:21;;;;;;;65.80;19.90;;;4.20;99.90;;;;;;5015450;28;20576;-60
2022/12/08 10:00:47;;;;;;;85.00;18.47;;;4.20;99.90;;;;;;5011292;28;20477;-60
2022/12/08 10:03:14;;;;;;;49.07;19.73;;;4.30;99.90;;;;;;5013825;28;20482;-60
2022/12/08 10:05:46;;;;;;;58.43;19.43;;;4.40;99.90;;;;;;5014320;28;20987;-60
2022/12/08 10:08:19;;;;;;;68.67;21.67;;;4.40;99.90;;;;;;5009101;28;20477;-60
2022/12/08 10:10:52;;;;;;;51.77;16.23;;;4.50;99.90;;;;;;5030579;28;20489;-60
2022/12/08 10:13:22;;;;;;;75.87;23.40;;;;;;;;;;5023930;28;20491;-60
2022/12/08 10:15:53;;;;;;;57.77;17.73;;;;;;;;;;5027944;28;20492;-59
2022/12/08 10:18:26;;;;;;;65.70;18.80;;;4.70;99.90;;;;;;5028104;28;20484;-59
2022/12/08 10:20:56;;;;;;;45.70;14.43;;;4.70;99.90;;;;;;5035058;28;20485;-60
2022/12/08 10:23:30;;;;;;;77.43;23.20;;;4.80;99.90;;;;;;5038978;28;20850;-60
2022/12/08 10:26:03;;;;;;;72.67;21.80;;;4.80;99.90;;;;;;5037741;28;21190;-60
2022/12/08 10:28:30;;;;;;;43.23;15.80;;;4.80;99.90;;;;;;5027919;28;20487;-60
2022/12/08 10:30:57;;;;;;;51.60;19.30;;;4.80;99.90;;;;;;5038524;28;20472;-60
2022/12/08 10:33:24;;;;;;;51.90;16.60;;;4.90;99.90;;;;;;5037599;28;21058;-60
2022/12/08 10:35:53;;;;;;;60.57;21.97;;;4.90;99.90;;;;;;5033309;28;20476;-60
2022/12/08 10:38:23;;;;;;;76.83;26.70;;;4.70;99.90;;;;;;5035478;28;20488;-60
2022/12/08 10:40:56;;;;;;;44.97;16.37;;;4.80;99.90;;;;;;5035595;28;20838;-60
2022/12/08 10:43:25;;;;;;;82.97;21.83;;;4.90;99.90;;;;;;5032274;28;20838;-60
2022/12/08 10:45:52;;;;;;;40.03;16.80;;;5.00;99.90;;;;;;5033516;28;20484;-60
2022/12/08 10:48:22;;;;;;;78.53;23.97;;;5.10;99.90;;;;;;5034447;28;20484;-60
2022/12/08 10:50:54;;;;;;;46.23;13.33;;;5.20;99.90;;;;;;5032003;28;20566;-60
2022/12/08 10:53:23;;;;;;;60.33;16.47;;;5.30;99.90;;;;;;5026985;28;20484;-59
2022/12/08 10:55:53;;;;;;;54.27;17.27;;;5.30;99.90;;;;;;5035426;28;20509;-60
2022/12/08 10:58:24;;;;;;;77.10;19.63;;;;;;;;;;5016440;28;20489;-60
2022/12/08 11:00:53;;;;;;;55.67;17.30;;;5.40;99.90;;;;;;5017066;28;20839;-60
2022/12/08 11:03:24;;;;;;;67.00;22.03;;;5.40;99.90;;;;;;5016119;28;20489;-60
2022/12/08 11:05:57;;;;;;;50.33;17.10;;;5.40;99.90;;;;;;5014293;28;20722;-60
2022/12/08 11:08:24;;;;;;;65.30;20.27;;;;;;;;;;5009940;28;21093;-60
2022/12/08 11:10:52;;;;;;;51.33;16.87;;;5.70;99.90;;;;;;5015321;28;21023;-60
2022/12/08 11:13:21;;;;;;;60.53;17.87;;;;;;;;;;5023771;28;20483;-60
2022/12/08 11:15:50;;;;;;;57.60;16.47;;;5.90;99.90;;;;;;5015300;28;20478;-60
2022/12/08 11:18:28;;;;;;;69.77;21.90;;;5.60;99.90;;;;;;5016421;28;20484;-60
2022/12/08 11:21:00;;;;;;;42.90;13.87;;;;;;;;;;5030178;28;20481;-60
2022/12/08 11:23:28;;;;;;;66.60;19.17;;;5.70;99.90;;;;;;5036383;28;20573;-60
2022/12/08 11:26:02;;;;;;;61.83;18.40;;;5.70;99.90;;;;;;5030963;28;20562;-60
2022/12/08 11:28:29;;;;;;;52.33;16.67;;;;;;;;;;5014216;28;20500;-60
2022/12/08 11:30:59;;;;;;;55.60;17.27;;;;;;;;;;5013321;28;20481;-60
2022/12/08 11:33:27;;;;;;;69.97;21.00;;;5.70;99.90;;;;;;5015093;28;20488;-60
2022/12/08 11:35:56;;;;;;;55.33;17.80;;;;;;;;;;5013620;28;20856;-60
2022/12/08 11:38:26;;;;;;;80.17;20.00;;;5.70;99.90;;;;;;5013297;28;20493;-60
2022/12/08 11:40:55;;;;;;;39.53;14.73;;;;;;;;;;5014017;28;20931;-60
2022/12/08 11:43:29;;;;;;;76.90;22.53;;;5.40;99.90;;;;;;5011814;28;20720;-60
2022/12/08 11:45:59;;;;;;;52.27;16.87;;;5.40;99.90;;;;;;5007258;28;20503;-60
2022/12/08 11:48:33;;;;;;;63.87;19.70;;;5.30;99.90;;;;;;5027874;28;20483;-61
2022/12/08 11:51:05;;;;;;;56.80;13.63;;;5.30;99.90;;;;;;5047253;28;20784;-60
2022/12/08 11:53:37;;;;;;;47.73;13.63;;;5.30;99.90;;;;;;5033761;28;20483;-60
2022/12/08 11:56:07;;;;;;;49.37;15.10;;;;;;;;;;5039751;28;20905;-60
2022/12/08 11:58:38;;;;;;;47.53;15.67;;;;;;;;;;5038341;28;20480;-60
2022/12/08 12:01:05;;;;;;;47.03;16.67;;;5.40;99.90;;;;;;5041155;28;20480;-60
2022/12/08 12:03:36;;;;;;;42.93;12.60;;;5.50;99.90;;;;;;5037449;28;20480;-60
2022/12/08 12:06:31;;;;;;;59.57;16.17;;;5.40;99.90;;;;;;5036952;28;20894;-60
2022/12/08 12:09:10;;;;;;;36.43;10.93;;;5.40;99.90;;;;;;5028069;28;20953;-60
2022/12/08 12:15:06;;;;;;;56.97;15.60;;;4.70;99.90;;;;;;5022381;28;20536;-60
2022/12/08 12:17:42;;;;;;;50.13;15.47;;;5.30;99.90;;;;;;5002315;28;20484;-60
2022/12/08 12:20:14;;;;;;;40.33;11.93;;;;;;;;;;5024259;28;20480;-60
2022/12/08 12:22:43;;;;;;;39.17;11.17;;;5.20;99.90;;;;;;5026267;28;20511;-60
2022/12/08 12:25:17;;;;;;;47.97;13.50;;;;;;;;;;5036921;28;20984;-60
2022/12/08 12:27:44;;;;;;;50.10;16.17;;;;;;;;;;5034666;28;21007;-60
2022/12/08 12:30:22;;;;;;;44.10;11.70;;;5.30;99.90;;;;;;5034519;28;20484;-60
2022/12/08 12:32:53;;;;;;;41.63;12.90;;;5.40;99.90;;;;;;5031817;28;21180;-60
2022/12/08 12:35:27;;;;;;;57.43;18.53;;;5.40;99.90;;;;;;5017885;28;20487;-61
2022/12/08 12:37:58;;;;;;;50.80;14.70;;;5.50;99.90;;;;;;5021662;28;20918;-60
2022/12/08 12:40:28;;;;;;;58.67;14.97;;;5.60;99.90;;;;;;5029437;28;20499;-60
2022/12/08 12:43:13;;;;;;;41.87;13.53;;;5.60;99.90;;;;;;5035006;28;20618;-60
2022/12/08 12:45:43;;;;;;;56.13;14.37;;;5.60;99.90;;;;;;5033882;28;20483;-60
2022/12/08 12:48:21;;;;;;;51.23;13.83;;;5.60;99.90;;;;;;5034739;28;20526;-60
2022/12/08 12:50:48;;;;;;;38.30;11.47;;;;;;;;;;5031833;28;20488;-60
2022/12/08 12:53:48;;;;;;;43.27;14.37;;;5.80;99.90;;;;;;5037163;28;20480;-60
2022/12/08 12:56:47;;;;;;;46.63;14.77;;;5.80;99.90;;;;;;5034668;28;20984;-60
2022/12/08 12:59:34;;;;;;;38.50;14.90;;;5.90;99.90;;;;;;5018301;28;21102;-59
2022/12/08 13:02:03;;;;;;;47.20;13.47;;;5.90;99.90;;;;;;5013382;28;20476;-59
2022/12/08 13:04:34;;;;;;;62.00;13.20;;;5.90;99.90;;;;;;5028361;28;20493;-60